sensor_id;sensor_type;location;lat;lon;timestamp;pressure;altitude;pressure_sealevel;temperature;humidity
40075;BME280;26529;51.530;11.754;2022-12-29T00:02:08;99239.69;;;18.01;47.07
40075;BME280;26529;51.530;11.754;2022-12-29T00:04:33;99229.09;;;18.01;47.14
40075;BME280;26529;51.530;11.754;2022-12-29T00:06:59;99236.06;;;18.02;47.05
40075;BME280;26529;51.530;11.754;2022-12-29T00:09:25;99230.78;;;18.02;47.04
40075;BME280;26529;51.530;11.754;2022-12-29T00:11:51;99231.72;;;18.01;47.32
40075;BME280;26529;51.530;11.754;2022-12-29T00:14:16;99234.38;;;18.01;47.02
40075;BME280;26529;51.530;11.754;2022-12-29T00:17:01;99229.09;;;18.01;47.15
40075;BME280;26529;51.530;11.754;2022-12-29T00:19:26;99233.53;;;18.00;47.09
40075;BME280;26529;51.530;11.754;2022-12-29T00:22:12;99222.06;;;18.00;47.20
40075;BME280;26529;51.530;11.754;2022-12-29T00:24:57;99217.63;;;18.00;47.13
40075;BME280;26529;51.530;11.754;2022-12-29T00:27:26;99212.31;;;18.00;46.87
40075;BME280;26529;51.530;11.754;2022-12-29T00:30:12;99214.09;;;18.00;47.08
40075;BME280;26529;51.530;11.754;2022-12-29T00:32:56;99214.09;;;18.00;47.08
40075;BME280;26529;51.530;11.754;2022-12-29T00:36:21;99206.16;;;18.00;47.27
40075;BME280;26529;51.530;11.754;2022-12-29T00:38:48;99197.47;;;17.98;47.37
40075;BME280;26529;51.530;11.754;2022-12-29T00:41:35;99204.47;;;17.99;47.23
40075;BME280;26529;51.530;11.754;2022-12-29T00:44:19;99200.97;;;17.98;47.09
40075;BME280;26529;51.530;11.754;2022-12-29T00:46:45;99201.09;;;17.97;47.22
40075;BME280;26529;51.530;11.754;2022-12-29T00:49:12;99209.75;;;17.99;47.17
40075;BME280;26529;51.530;11.754;2022-12-29T00:51:59;99213.38;;;17.98;47.20
40075;BME280;26529;51.530;11.754;2022-12-29T00:54:26;99209.75;;;17.99;47.14
40075;BME280;26529;51.530;11.754;2022-12-29T00:56:53;99210.72;;;17.98;47.13
40075;BME280;26529;51.530;11.754;2022-12-29T00:59:19;99211.69;;;17.97;47.02
40075;BME280;26529;51.530;11.754;2022-12-29T01:01:46;99209.75;;;17.99;47.08
40075;BME280;26529;51.530;11.754;2022-12-29T01:04:12;99208.06;;;17.98;47.04
40075;BME280;26529;51.530;11.754;2022-12-29T01:06:40;99206.41;;;17.97;47.23
40075;BME280;26529;51.530;11.754;2022-12-29T01:09:08;99195.78;;;17.97;47.07
40075;BME280;26529;51.530;11.754;2022-12-29T01:11:52;99189.63;;;17.96;47.06
40075;BME280;26529;51.530;11.754;2022-12-29T01:14:19;99195.78;;;17.97;47.10
40075;BME280;26529;51.530;11.754;2022-12-29T01:16:45;99186.16;;;17.96;47.09
40075;BME280;26529;51.530;11.754;2022-12-29T01:19:11;99189.75;;;17.95;47.16
40075;BME280;26529;51.530;11.754;2022-12-29T01:21:37;99182.63;;;17.95;47.12
40075;BME280;26529;51.530;11.754;2022-12-29T01:24:02;99188.78;;;17.96;47.08
40075;BME280;26529;51.530;11.754;2022-12-29T01:26:28;99183.50;;;17.96;47.11
40075;BME280;26529;51.530;11.754;2022-12-29T01:28:53;99173.72;;;17.96;47.23
40075;BME280;26529;51.530;11.754;2022-12-29T01:31:19;99187.09;;;17.95;47.23
40075;BME280;26529;51.530;11.754;2022-12-29T01:36:18;99194.09;;;17.96;47.06
40075;BME280;26529;51.530;11.754;2022-12-29T01:38:44;99199.41;;;17.96;47.11
40075;BME280;26529;51.530;11.754;2022-12-29T01:41:12;99207.34;;;17.96;47.18
40075;BME280;26529;51.530;11.754;2022-12-29T01:43:48;99201.34;;;17.94;47.20
40075;BME280;26529;51.530;11.754;2022-12-29T01:51:36;99210.84;;;17.96;47.12
40075;BME280;26529;51.530;11.754;2022-12-29T01:54:08;99203.03;;;17.95;47.09
40075;BME280;26529;51.530;11.754;2022-12-29T01:56:36;99206.63;;;17.94;47.08
40075;BME280;26529;51.530;11.754;2022-12-29T01:59:06;99206.63;;;17.94;47.10
40075;BME280;26529;51.530;11.754;2022-12-29T02:01:32;99202.16;;;17.94;47.12
40075;BME280;26529;51.530;11.754;2022-12-29T02:04:00;99209.28;;;17.94;47.10
40075;BME280;26529;51.530;11.754;2022-12-29T02:06:31;99197.81;;;17.93;47.18
40075;BME280;26529;51.530;11.754;2022-12-29T02:08:58;99194.22;;;17.94;47.03
40075;BME280;26529;51.530;11.754;2022-12-29T02:11:25;99202.16;;;17.94;47.17
40075;BME280;26529;51.530;11.754;2022-12-29T02:13:51;99202.16;;;17.94;47.11
40075;BME280;26529;51.530;11.754;2022-12-29T02:19:50;99194.31;;;17.93;47.03
40075;BME280;26529;51.530;11.754;2022-12-29T02:22:27;99177.47;;;17.94;47.10
40075;BME280;26529;51.530;11.754;2022-12-29T02:25:35;99171.19;;;17.95;47.00
40075;BME280;26529;51.530;11.754;2022-12-29T02:31:30;99159.00;;;17.92;47.24
40075;BME280;26529;51.530;11.754;2022-12-29T02:39:34;99158.16;;;17.92;47.17
40075;BME280;26529;51.530;11.754;2022-12-29T02:42:14;99143.94;;;17.93;47.03
40075;BME280;26529;51.530;11.754;2022-12-29T02:44:55;99127.06;;;17.94;47.03
40075;BME280;26529;51.530;11.754;2022-12-29T02:47:29;99138.63;;;17.93;47.05
40075;BME280;26529;51.530;11.754;2022-12-29T02:50:11;99131.53;;;17.93;47.07
40075;BME280;26529;51.530;11.754;2022-12-29T02:52:46;99133.31;;;17.93;47.17
40075;BME280;26529;51.530;11.754;2022-12-29T02:55:13;99135.97;;;17.93;47.14
40075;BME280;26529;51.530;11.754;2022-12-29T02:57:38;99126.34;;;17.92;47.14
40075;BME280;26529;51.530;11.754;2022-12-29T03:00:10;99128.97;;;17.92;47.15
40075;BME280;26529;51.530;11.754;2022-12-29T03:03:09;99128.00;;;17.93;47.07
40075;BME280;26529;51.530;11.754;2022-12-29T03:06:01;99135.97;;;17.93;47.13
40075;BME280;26529;51.530;11.754;2022-12-29T03:08:50;99130.66;;;17.93;47.05
40075;BME280;26529;51.530;11.754;2022-12-29T03:11:27;99123.69;;;17.92;47.21
40075;BME280;26529;51.530;11.754;2022-12-29T03:14:39;99123.81;;;17.90;47.12
40075;BME280;26529;51.530;11.754;2022-12-29T03:17:45;99125.50;;;17.91;47.20
40075;BME280;26529;51.530;11.754;2022-12-29T03:20:19;99143.22;;;17.90;47.11
40075;BME280;26529;51.530;11.754;2022-12-29T03:22:50;99150.19;;;17.92;47.14
40075;BME280;26529;51.530;11.754;2022-12-29T03:25:26;99144.88;;;17.92;47.12
40075;BME280;26529;51.530;11.754;2022-12-29T03:27:56;99141.53;;;17.89;47.15
40075;BME280;26529;51.530;11.754;2022-12-29T03:30:26;99134.28;;;17.92;47.13
40075;BME280;26529;51.530;11.754;2022-12-29T03:33:02;99128.97;;;17.92;47.05
40075;BME280;26529;51.530;11.754;2022-12-29T03:35:33;99136.09;;;17.91;47.08
40075;BME280;26529;51.530;11.754;2022-12-29T03:38:15;99133.56;;;17.89;46.93
40075;BME280;26529;51.530;11.754;2022-12-29T03:40:44;99130.06;;;17.89;47.13
40075;BME280;26529;51.530;11.754;2022-12-29T03:43:12;99129.22;;;17.88;47.16
40075;BME280;26529;51.530;11.754;2022-12-29T03:45:39;99130.06;;;17.89;47.04
40075;BME280;26529;51.530;11.754;2022-12-29T03:48:04;99144.19;;;17.89;47.15
40075;BME280;26529;51.530;11.754;2022-12-29T03:50:32;99138.00;;;17.89;46.99
40075;BME280;26529;51.530;11.754;2022-12-29T03:52:58;99139.84;;;17.88;47.13
40075;BME280;26529;51.530;11.754;2022-12-29T03:55:26;99150.44;;;17.88;47.04
40075;BME280;26529;51.530;11.754;2022-12-29T03:57:52;99152.13;;;17.89;47.05
40075;BME280;26529;51.530;11.754;2022-12-29T04:00:27;99150.44;;;17.88;47.17
40075;BME280;26529;51.530;11.754;2022-12-29T04:02:53;99142.50;;;17.88;47.22
40075;BME280;26529;51.530;11.754;2022-12-29T04:05:21;99142.50;;;17.88;47.13
40075;BME280;26529;51.530;11.754;2022-12-29T04:07:49;99138.16;;;17.87;47.08
40075;BME280;26529;51.530;11.754;2022-12-29T04:10:15;99122.25;;;17.87;47.26
40075;BME280;26529;51.530;11.754;2022-12-29T04:12:42;99138.16;;;17.87;47.02
40075;BME280;26529;51.530;11.754;2022-12-29T04:15:09;99128.38;;;17.88;47.07
40075;BME280;26529;51.530;11.754;2022-12-29T04:17:35;99129.22;;;17.88;47.28
40075;BME280;26529;51.530;11.754;2022-12-29T04:20:02;99124.75;;;17.89;47.16
40075;BME280;26529;51.530;11.754;2022-12-29T04:22:46;99121.38;;;17.87;47.14
40075;BME280;26529;51.530;11.754;2022-12-29T04:25:13;99114.16;;;17.89;47.15
40075;BME280;26529;51.530;11.754;2022-12-29T04:27:40;99116.94;;;17.87;47.22
40075;BME280;26529;51.530;11.754;2022-12-29T04:30:22;99093.19;;;17.86;47.18
40075;BME280;26529;51.530;11.754;2022-12-29T04:33:08;99099.19;;;17.88;47.10
40075;BME280;26529;51.530;11.754;2022-12-29T04:35:34;99088.72;;;17.86;47.02
40075;BME280;26529;51.530;11.754;2022-12-29T04:37:59;99086.91;;;17.87;47.24
40075;BME280;26529;51.530;11.754;2022-12-29T04:40:25;99084.25;;;17.87;47.16
40075;BME280;26529;51.530;11.754;2022-12-29T04:42:51;99094.88;;;17.87;47.15
40075;BME280;26529;51.530;11.754;2022-12-29T04:45:17;99088.72;;;17.86;47.10
40075;BME280;26529;51.530;11.754;2022-12-29T04:47:58;99091.34;;;17.86;47.10
40075;BME280;26529;51.530;11.754;2022-12-29T04:50:59;99083.41;;;17.86;47.21
40075;BME280;26529;51.530;11.754;2022-12-29T04:53:31;99077.28;;;17.86;47.19
40075;BME280;26529;51.530;11.754;2022-12-29T04:55:58;99080.75;;;17.86;47.08
40075;BME280;26529;51.530;11.754;2022-12-29T04:58:24;99089.56;;;17.87;47.20
40075;BME280;26529;51.530;11.754;2022-12-29T05:00:51;99078.09;;;17.86;47.07
40075;BME280;26529;51.530;11.754;2022-12-29T05:03:19;99075.59;;;17.85;46.96
40075;BME280;26529;51.530;11.754;2022-12-29T05:05:44;99066.66;;;17.86;47.23
40075;BME280;26529;51.530;11.754;2022-12-29T05:08:11;99076.41;;;17.85;47.19
40075;BME280;26529;51.530;11.754;2022-12-29T05:10:36;99068.59;;;17.84;46.95
40075;BME280;26529;51.530;11.754;2022-12-29T05:13:09;99076.41;;;17.85;47.06
40075;BME280;26529;51.530;11.754;2022-12-29T05:15:36;99076.41;;;17.85;46.99
40075;BME280;26529;51.530;11.754;2022-12-29T05:18:01;99080.03;;;17.84;47.05
40075;BME280;26529;51.530;11.754;2022-12-29T05:20:28;99081.72;;;17.85;46.98
40075;BME280;26529;51.530;11.754;2022-12-29T05:22:53;99075.59;;;17.85;47.13
40075;BME280;26529;51.530;11.754;2022-12-29T05:25:19;99074.72;;;17.84;46.99
40075;BME280;26529;51.530;11.754;2022-12-29T05:27:52;99069.44;;;17.84;46.98
40075;BME280;26529;51.530;11.754;2022-12-29T05:30:38;99073.75;;;17.85;47.09
40075;BME280;26529;51.530;11.754;2022-12-29T05:33:04;99067.75;;;17.83;46.89
40075;BME280;26529;51.530;11.754;2022-12-29T05:35:32;99064.13;;;17.84;47.06
40075;BME280;26529;51.530;11.754;2022-12-29T05:37:58;99062.34;;;17.85;47.03
40075;BME280;26529;51.530;11.754;2022-12-29T05:40:23;99057.13;;;17.83;47.10
40075;BME280;26529;51.530;11.754;2022-12-29T05:42:51;99063.31;;;17.84;47.17
40075;BME280;26529;51.530;11.754;2022-12-29T05:45:35;99070.50;;;17.82;47.19
40075;BME280;26529;51.530;11.754;2022-12-29T05:48:22;99065.94;;;17.84;46.93
40075;BME280;26529;51.530;11.754;2022-12-29T05:51:09;99059.78;;;17.83;46.97
40075;BME280;26529;51.530;11.754;2022-12-29T05:53:54;99060.75;;;17.82;47.12
40075;BME280;26529;51.530;11.754;2022-12-29T05:56:21;99062.44;;;17.83;46.92
40075;BME280;26529;51.530;11.754;2022-12-29T05:58:53;99063.53;;;17.81;47.12
40075;BME280;26529;51.530;11.754;2022-12-29T06:01:20;99076.66;;;17.82;47.14
40075;BME280;26529;51.530;11.754;2022-12-29T06:03:46;99075.69;;;17.83;47.16
40075;BME280;26529;51.530;11.754;2022-12-29T06:06:12;99081.00;;;17.83;47.18
40075;BME280;26529;51.530;11.754;2022-12-29T06:08:37;99074.00;;;17.82;47.05
40075;BME280;26529;51.530;11.754;2022-12-29T06:11:03;99078.34;;;17.83;47.04
40075;BME280;26529;51.530;11.754;2022-12-29T06:13:28;99071.38;;;17.82;47.07
40075;BME280;26529;51.530;11.754;2022-12-29T06:15:55;99085.44;;;17.83;46.98
40075;BME280;26529;51.530;11.754;2022-12-29T06:18:24;99074.97;;;17.81;47.09
40075;BME280;26529;51.530;11.754;2022-12-29T06:20:50;99082.78;;;17.83;47.13
40075;BME280;26529;51.530;11.754;2022-12-29T06:23:17;99066.06;;;17.82;47.10
40075;BME280;26529;51.530;11.754;2022-12-29T06:25:44;99071.38;;;17.82;46.94
40075;BME280;26529;51.530;11.754;2022-12-29T06:28:09;99060.75;;;17.82;47.10
40075;BME280;26529;51.530;11.754;2022-12-29T06:30:36;99058.09;;;17.82;46.93
40075;BME280;26529;51.530;11.754;2022-12-29T06:33:01;99065.19;;;17.82;46.96
40075;BME280;26529;51.530;11.754;2022-12-29T06:35:27;99043.16;;;17.81;47.13
40075;BME280;26529;51.530;11.754;2022-12-29T06:37:53;99046.78;;;17.80;47.01
40075;BME280;26529;51.530;11.754;2022-12-29T06:40:19;99041.47;;;17.80;47.06
40075;BME280;26529;51.530;11.754;2022-12-29T06:43:04;99040.50;;;17.81;47.07
40075;BME280;26529;51.530;11.754;2022-12-29T06:45:55;99051.22;;;17.80;47.25
40075;BME280;26529;51.530;11.754;2022-12-29T06:48:20;99054.59;;;17.82;46.99
40075;BME280;26529;51.530;11.754;2022-12-29T06:50:46;99060.88;;;17.81;47.08
40075;BME280;26529;51.530;11.754;2022-12-29T06:53:11;99062.69;;;17.80;46.96
40075;BME280;26529;51.530;11.754;2022-12-29T06:55:37;99074.00;;;17.82;47.13
40075;BME280;26529;51.530;11.754;2022-12-29T06:58:02;99079.44;;;17.81;47.07
40075;BME280;26529;51.530;11.754;2022-12-29T07:00:27;99091.84;;;17.80;47.02
40075;BME280;26529;51.530;11.754;2022-12-29T07:02:55;99087.50;;;17.79;46.91
40075;BME280;26529;51.530;11.754;2022-12-29T07:05:20;99076.88;;;17.79;47.22
40075;BME280;26529;51.530;11.754;2022-12-29T07:07:46;99074.22;;;17.79;47.26
40075;BME280;26529;51.530;11.754;2022-12-29T07:10:11;99075.09;;;17.80;47.08
40075;BME280;26529;51.530;11.754;2022-12-29T07:12:37;99076.88;;;17.79;47.14
40075;BME280;26529;51.530;11.754;2022-12-29T07:15:02;99078.59;;;17.80;47.00
40075;BME280;26529;51.530;11.754;2022-12-29T07:17:28;99076.88;;;17.79;47.09
40075;BME280;26529;51.530;11.754;2022-12-29T07:19:53;99077.75;;;17.80;47.06
40075;BME280;26529;51.530;11.754;2022-12-29T07:22:19;99071.59;;;17.79;47.08
40075;BME280;26529;51.530;11.754;2022-12-29T07:24:44;99080.41;;;17.80;47.13
40075;BME280;26529;51.530;11.754;2022-12-29T07:27:10;99083.03;;;17.80;47.14
40075;BME280;26529;51.530;11.754;2022-12-29T07:29:38;99075.09;;;17.80;47.05
40075;BME280;26529;51.530;11.754;2022-12-29T07:32:04;99072.56;;;17.78;47.04
40075;BME280;26529;51.530;11.754;2022-12-29T07:34:29;99079.69;;;17.77;46.97
40075;BME280;26529;51.530;11.754;2022-12-29T07:36:55;99073.41;;;17.79;47.09
40075;BME280;26529;51.530;11.754;2022-12-29T07:39:20;99077.03;;;17.77;47.17
40075;BME280;26529;51.530;11.754;2022-12-29T07:41:46;99076.06;;;17.79;47.12
40075;BME280;26529;51.530;11.754;2022-12-29T07:44:16;99067.25;;;17.78;47.20
40075;BME280;26529;51.530;11.754;2022-12-29T07:47:00;99064.59;;;17.78;47.08
40075;BME280;26529;51.530;11.754;2022-12-29T07:49:25;99064.59;;;17.78;47.09
40075;BME280;26529;51.530;11.754;2022-12-29T07:51:51;99064.59;;;17.78;47.21
40075;BME280;26529;51.530;11.754;2022-12-29T07:54:16;99064.59;;;17.78;47.21
40075;BME280;26529;51.530;11.754;2022-12-29T07:56:45;99077.84;;;17.78;47.01
40075;BME280;26529;51.530;11.754;2022-12-29T07:59:10;99078.81;;;17.77;46.96
40075;BME280;26529;51.530;11.754;2022-12-29T08:01:37;99072.56;;;17.78;47.02
40075;BME280;26529;51.530;11.754;2022-12-29T08:04:03;99081.38;;;17.79;47.08
40075;BME280;26529;51.530;11.754;2022-12-29T08:06:29;99083.16;;;17.78;47.06
40075;BME280;26529;51.530;11.754;2022-12-29T08:08:56;99084.97;;;17.77;47.04
40075;BME280;26529;51.530;11.754;2022-12-29T08:11:22;99093.75;;;17.78;47.21
40075;BME280;26529;51.530;11.754;2022-12-29T08:13:47;99091.97;;;17.79;47.09
40075;BME280;26529;51.530;11.754;2022-12-29T08:16:13;99096.41;;;17.78;47.07
40075;BME280;26529;51.530;11.754;2022-12-29T08:18:38;99106.19;;;17.77;47.16
40075;BME280;26529;51.530;11.754;2022-12-29T08:21:05;99102.69;;;17.77;47.10
40075;BME280;26529;51.530;11.754;2022-12-29T08:23:31;99111.50;;;17.77;47.27
40075;BME280;26529;51.530;11.754;2022-12-29T08:26:01;99099.22;;;17.76;47.15
40075;BME280;26529;51.530;11.754;2022-12-29T08:28:27;99112.31;;;17.78;47.13
40075;BME280;26529;51.530;11.754;2022-12-29T08:30:52;99095.69;;;17.76;47.05
40075;BME280;26529;51.530;11.754;2022-12-29T08:33:18;99089.44;;;17.77;47.03
40075;BME280;26529;51.530;11.754;2022-12-29T08:35:44;99089.44;;;17.77;47.01
40075;BME280;26529;51.530;11.754;2022-12-29T08:38:09;99096.41;;;17.78;47.09
40075;BME280;26529;51.530;11.754;2022-12-29T08:40:37;99079.53;;;17.79;46.99
40075;BME280;26529;51.530;11.754;2022-12-29T08:43:02;99087.50;;;17.79;47.03
40075;BME280;26529;51.530;11.754;2022-12-29T08:45:27;99085.81;;;17.78;47.14
40075;BME280;26529;51.530;11.754;2022-12-29T08:47:53;99072.56;;;17.78;47.14
40075;BME280;26529;51.530;11.754;2022-12-29T08:50:19;99076.06;;;17.79;47.06
40075;BME280;26529;51.530;11.754;2022-12-29T08:52:44;99074.22;;;17.79;47.11
40075;BME280;26529;51.530;11.754;2022-12-29T08:55:10;99080.28;;;17.81;46.97
40075;BME280;26529;51.530;11.754;2022-12-29T08:57:36;99081.00;;;17.83;46.73
40075;BME280;26529;51.530;11.754;2022-12-29T09:00:06;99086.31;;;17.83;46.99
40075;BME280;26529;51.530;11.754;2022-12-29T09:02:32;99075.44;;;17.86;47.07
40075;BME280;26529;51.530;11.754;2022-12-29T09:04:58;99077.16;;;17.87;46.88
40075;BME280;26529;51.530;11.754;2022-12-29T09:07:24;99081.50;;;17.88;46.88
40075;BME280;26529;51.530;11.754;2022-12-29T09:09:50;99081.38;;;17.90;46.90
40075;BME280;26529;51.530;11.754;2022-12-29T09:12:16;99091.03;;;17.91;47.09
40075;BME280;26529;51.530;11.754;2022-12-29T09:14:42;99087.78;;;17.87;47.07
40075;BME280;26529;51.530;11.754;2022-12-29T09:17:10;99085.13;;;17.87;47.15
40075;BME280;26529;51.530;11.754;2022-12-29T09:19:54;99090.41;;;17.87;47.04
40075;BME280;26529;51.530;11.754;2022-12-29T09:22:20;99085.84;;;17.89;46.99
40075;BME280;26529;51.530;11.754;2022-12-29T09:24:45;99079.56;;;17.90;47.06
40075;BME280;26529;51.530;11.754;2022-12-29T09:27:11;99077.78;;;17.91;47.05
40075;BME280;26529;51.530;11.754;2022-12-29T09:29:36;99068.97;;;17.90;47.04
40075;BME280;26529;51.530;11.754;2022-12-29T09:32:02;99074.97;;;17.93;46.99
40075;BME280;26529;51.530;11.754;2022-12-29T09:34:27;99087.41;;;17.92;46.90
40075;BME280;26529;51.530;11.754;2022-12-29T09:36:53;99075.13;;;17.91;46.88
40075;BME280;26529;51.530;11.754;2022-12-29T09:39:18;99068.72;;;17.94;47.06
40075;BME280;26529;51.530;11.754;2022-12-29T09:44:55;99063.44;;;17.94;46.97
40075;BME280;26529;51.530;11.754;2022-12-29T09:47:24;99072.31;;;17.93;47.15
40075;BME280;26529;51.530;11.754;2022-12-29T09:50:01;99063.53;;;17.92;47.12
40075;BME280;26529;51.530;11.754;2022-12-29T09:52:38;99075.94;;;17.92;47.02
40075;BME280;26529;51.530;11.754;2022-12-29T09:55:12;99068.97;;;17.90;46.99
40075;BME280;26529;51.530;11.754;2022-12-29T09:57:46;99068.13;;;17.90;47.01
40075;BME280;26529;51.530;11.754;2022-12-29T10:00:16;99066.31;;;17.90;47.11
40075;BME280;26529;51.530;11.754;2022-12-29T10:02:52;99053.03;;;17.90;47.02
40075;BME280;26529;51.530;11.754;2022-12-29T10:05:39;99051.38;;;17.89;47.07
40075;BME280;26529;51.530;11.754;2022-12-29T10:08:30;99060.28;;;17.88;47.11
40075;BME280;26529;51.530;11.754;2022-12-29T10:11:34;99060.28;;;17.88;47.16
40075;BME280;26529;51.530;11.754;2022-12-29T10:17:05;99039.91;;;17.89;46.93
40075;BME280;26529;51.530;11.754;2022-12-29T10:19:54;99044.25;;;17.90;46.85
40075;BME280;26529;51.530;11.754;2022-12-29T10:22:44;99043.16;;;17.93;47.11
40075;BME280;26529;51.530;11.754;2022-12-29T10:25:18;99041.72;;;18.00;46.68
40075;BME280;26529;51.530;11.754;2022-12-29T10:27:48;99053.28;;;17.99;46.75
40075;BME280;26529;51.530;11.754;2022-12-29T10:30:14;99041.97;;;17.97;46.88
40075;BME280;26529;51.530;11.754;2022-12-29T10:32:45;99040.88;;;17.99;46.79
40075;BME280;26529;51.530;11.754;2022-12-29T10:35:19;99053.78;;;18.04;46.71
40075;BME280;26529;51.530;11.754;2022-12-29T10:43:17;99061.28;;;18.10;46.73
40075;BME280;26529;51.530;11.754;2022-12-29T10:45:46;99046.56;;;18.06;46.85
40075;BME280;26529;51.530;11.754;2022-12-29T10:48:20;99053.31;;;18.10;46.69
40075;BME280;26529;51.530;11.754;2022-12-29T10:50:47;99052.25;;;18.13;46.48
40075;BME280;26529;51.530;11.754;2022-12-29T10:53:20;99050.56;;;18.12;46.65
40075;BME280;26529;51.530;11.754;2022-12-29T10:55:49;99047.06;;;18.11;46.56
40075;BME280;26529;51.530;11.754;2022-12-29T10:58:15;99037.53;;;18.09;46.76
40075;BME280;26529;51.530;11.754;2022-12-29T11:00:42;99048.28;;;18.07;46.86
40075;BME280;26529;51.530;11.754;2022-12-29T11:03:20;99041.25;;;18.06;46.78
40075;BME280;26529;51.530;11.754;2022-12-29T11:06:05;99047.53;;;18.05;46.70
40075;BME280;26529;51.530;11.754;2022-12-29T11:08:38;99051.13;;;18.04;46.97
40075;BME280;26529;51.530;11.754;2022-12-29T11:11:06;99056.44;;;18.04;46.74
40075;BME280;26529;51.530;11.754;2022-12-29T11:13:35;99051.13;;;18.04;46.78
40075;BME280;26529;51.530;11.754;2022-12-29T11:16:11;99027.06;;;18.07;46.82
40075;BME280;26529;51.530;11.754;2022-12-29T11:18:39;99031.84;;;18.13;46.65
40075;BME280;26529;51.530;11.754;2022-12-29T11:21:09;99035.25;;;18.15;46.47
40075;BME280;26529;51.530;11.754;2022-12-29T11:24:03;99040.56;;;18.15;46.67
40075;BME280;26529;51.530;11.754;2022-12-29T11:26:31;99039.81;;;18.13;46.65
40075;BME280;26529;51.530;11.754;2022-12-29T11:32:27;99049.72;;;18.11;46.73
40075;BME280;26529;51.530;11.754;2022-12-29T11:34:56;99046.34;;;18.09;46.74
40075;BME280;26529;51.530;11.754;2022-12-29T11:37:27;99043.56;;;18.11;46.74
40075;BME280;26529;51.530;11.754;2022-12-29T11:40:00;99042.72;;;18.10;46.82
40075;BME280;26529;51.530;11.754;2022-12-29T11:42:37;99046.22;;;18.11;46.61
40075;BME280;26529;51.530;11.754;2022-12-29T11:45:06;99051.38;;;18.12;46.59
40075;BME280;26529;51.530;11.754;2022-12-29T11:47:32;99043.09;;;18.17;46.66
40075;BME280;26529;51.530;11.754;2022-12-29T11:50:04;99051.50;;;18.22;46.34
40075;BME280;26529;51.530;11.754;2022-12-29T11:52:35;99050.44;;;18.25;46.45
40075;BME280;26529;51.530;11.754;2022-12-29T11:55:03;99039.59;;;18.28;46.20
40075;BME280;26529;51.530;11.754;2022-12-29T11:57:33;99049.72;;;18.34;46.28
40075;BME280;26529;51.530;11.754;2022-12-29T12:00:02;99046.56;;;18.29;46.35
40075;BME280;26529;51.530;11.754;2022-12-29T12:02:47;99054.31;;;18.21;46.62
40075;BME280;26529;51.530;11.754;2022-12-29T12:08:36;99055.00;;;18.23;46.61
40075;BME280;26529;51.530;11.754;2022-12-29T12:11:25;99054.16;;;18.22;46.57
40075;BME280;26529;51.530;11.754;2022-12-29T12:13:59;99058.75;;;18.20;46.68
40075;BME280;26529;51.530;11.754;2022-12-29T12:16:36;99055.38;;;18.18;46.61
40075;BME280;26529;51.530;11.754;2022-12-29T12:22:38;99050.31;;;18.15;46.72
40075;BME280;26529;51.530;11.754;2022-12-29T12:25:21;99065.41;;;18.14;46.74
40075;BME280;26529;51.530;11.754;2022-12-29T12:27:52;99070.69;;;18.14;46.67
40075;BME280;26529;51.530;11.754;2022-12-29T12:30:23;99063.69;;;18.13;46.69
40075;BME280;26529;51.530;11.754;2022-12-29T12:32:58;99068.16;;;18.13;46.72
40075;BME280;26529;51.530;11.754;2022-12-29T12:35:41;99065.63;;;18.11;46.74
40075;BME280;26529;51.530;11.754;2022-12-29T12:38:31;99068.28;;;18.11;46.70
40075;BME280;26529;51.530;11.754;2022-12-29T12:41:33;99074.56;;;18.10;46.74
40075;BME280;26529;51.530;11.754;2022-12-29T12:49:23;99065.03;;;18.08;46.79
40075;BME280;26529;51.530;11.754;2022-12-29T12:51:58;99081.78;;;18.08;46.89
40075;BME280;26529;51.530;11.754;2022-12-29T12:55:00;99090.72;;;18.07;46.76
40075;BME280;26529;51.530;11.754;2022-12-29T12:57:52;99081.91;;;18.07;46.84
40075;BME280;26529;51.530;11.754;2022-12-29T13:00:21;99085.41;;;18.07;46.76
40075;BME280;26529;51.530;11.754;2022-12-29T13:03:12;99065.13;;;18.06;46.77
40075;BME280;26529;51.530;11.754;2022-12-29T13:05:56;99080.09;;;18.07;46.66
40075;BME280;26529;51.530;11.754;2022-12-29T13:20:31;99092.00;;;18.01;46.83
40075;BME280;26529;51.530;11.754;2022-12-29T13:23:24;99077.75;;;18.02;46.68
40075;BME280;26529;51.530;11.754;2022-12-29T13:32:17;99071.63;;;18.02;46.69
40075;BME280;26529;51.530;11.754;2022-12-29T13:34:52;99081.38;;;18.01;46.76
40075;BME280;26529;51.530;11.754;2022-12-29T13:37:25;99076.94;;;18.02;46.69
40075;BME280;26529;51.530;11.754;2022-12-29T13:39:58;99075.25;;;18.01;46.76
40075;BME280;26529;51.530;11.754;2022-12-29T13:42:25;99089.34;;;18.01;46.96
40075;BME280;26529;51.530;11.754;2022-12-29T13:44:56;99103.69;;;17.99;46.75
40075;BME280;26529;51.530;11.754;2022-12-29T13:47:40;99108.00;;;18.00;46.83
40075;BME280;26529;51.530;11.754;2022-12-29T13:50:15;99106.22;;;18.00;46.79
40075;BME280;26529;51.530;11.754;2022-12-29T13:52:51;99125.75;;;17.99;46.82
40075;BME280;26529;51.530;11.754;2022-12-29T14:00:22;99122.25;;;17.99;46.76
40075;BME280;26529;51.530;11.754;2022-12-29T14:03:12;99128.50;;;17.98;46.78
40075;BME280;26529;51.530;11.754;2022-12-29T14:05:45;99123.22;;;17.98;46.98
40075;BME280;26529;51.530;11.754;2022-12-29T14:08:17;99125.84;;;17.98;46.71
40075;BME280;26529;51.530;11.754;2022-12-29T14:10:50;99126.81;;;17.97;46.76
40075;BME280;26529;51.530;11.754;2022-12-29T14:13:23;99137.44;;;17.97;46.91
40075;BME280;26529;51.530;11.754;2022-12-29T14:15:53;99135.50;;;17.99;46.89
40075;BME280;26529;51.530;11.754;2022-12-29T14:18:22;99140.94;;;17.97;47.02
40075;BME280;26529;51.530;11.754;2022-12-29T14:20:55;99152.50;;;17.96;46.96
40075;BME280;26529;51.530;11.754;2022-12-29T14:23:37;99149.00;;;17.96;46.96
40075;BME280;26529;51.530;11.754;2022-12-29T14:28:32;99148.28;;;17.94;47.05